Time;durP1;ratioP1;P1;durP2;ratioP2;P2;SDS_P1;SDS_P2;PMS_P1;PMS_P2;Temp;Humidity;BMP_temperature;BMP_pressure;BME280_temperature;BME280_humidity;BME280_pressure;Samples;Min_cycle;Max_cycle;Signal;HPM_P1;HPM_P2
2022/08/17 00:01:39;;;;;;;5.65;3.42;;;;;;;25.61;49.04;94636.13;5044845;28;20407;-57
2022/08/17 00:04:07;;;;;;;5.95;3.17;;;;;;;25.79;49.30;94670.06;5047603;28;20119;-52
2022/08/17 00:06:34;;;;;;;5.28;3.40;;;;;;;25.81;49.19;94671.72;5048932;28;20029;-56
2022/08/17 00:09:00;;;;;;;6.32;4.03;;;;;;;25.69;49.90;94669.03;5045336;28;20090;-54
2022/08/17 00:11:37;;;;;;;6.22;3.90;;;;;;;25.67;49.71;94675.03;5024293;28;20053;-55
2022/08/17 00:14:05;;;;;;;7.65;3.50;;;;;;;25.38;49.58;94631.69;5035960;28;20087;-54
2022/08/17 00:16:37;;;;;;;5.68;4.05;;;;;;;25.62;49.38;94653.25;5042028;28;20037;-53
2022/08/17 00:19:05;;;;;;;7.35;4.07;;;;;;;25.68;49.72;94678.50;5028166;28;20423;-54
2022/08/17 00:21:30;;;;;;;5.00;3.90;;;;;;;25.68;49.88;94675.78;5045349;28;20051;-55
2022/08/17 00:23:56;;;;;;;6.15;3.33;;;;;;;25.54;49.96;94668.84;5025642;28;20503;-54
2022/08/17 00:26:22;;;;;;;5.38;3.97;;;;;;;25.46;50.13;94662.59;5044739;28;20467;-53
2022/08/17 00:28:47;;;;;;;8.00;4.40;;;;;;;25.04;50.41;94600.91;5022582;28;20032;-53
2022/08/17 00:31:13;;;;;;;6.38;3.80;;;;;;;25.46;50.57;94670.78;5042875;28;20036;-52
2022/08/17 00:33:39;;;;;;;5.25;4.03;;;;;;;25.50;50.49;94668.44;5042502;28;20114;-52
2022/08/17 00:36:06;;;;;;;5.53;3.67;;;;;;;25.55;50.45;94670.34;5025233;28;20041;-52
2022/08/17 00:38:31;;;;;;;5.38;3.63;;;;;;;25.51;50.69;94678.13;5038852;28;20504;-54
2022/08/17 00:41:00;;;;;;;4.85;3.75;;;;;;;25.27;51.04;94645.59;5038370;28;20047;-57
2022/08/17 00:43:35;;;;;;;5.57;3.80;;;;;;;25.49;50.98;94672.47;5049978;28;20076;-52
2022/08/17 00:46:05;;;;;;;6.18;3.75;;;;;;;25.52;50.79;94666.66;5051898;28;20487;-52
2022/08/17 00:48:31;;;;;;;6.25;3.63;;;;;;;25.51;50.67;94669.91;5038746;28;20052;-54
2022/08/17 00:51:01;;;;;;;5.22;3.85;;;;;;;25.45;51.00;94666.56;5034807;28;20041;-54
2022/08/17 00:53:27;;;;;;;;;;;;;;;25.42;50.77;94662.16;5055501;28;20036;-55
2022/08/17 00:55:53;;;;;;;5.88;3.85;;;;;;;25.48;50.99;94654.56;5053119;28;19916;-52
2022/08/17 00:58:18;;;;;;;5.55;3.60;;;;;;;25.44;50.76;94659.63;5040639;28;20036;-53
2022/08/17 01:00:44;;;;;;;5.90;3.58;;;;;;;25.43;50.75;94658.91;5050530;28;20438;-53
2022/08/17 01:03:18;;;;;;;5.63;3.72;;;;;;;25.27;51.05;94640.13;5041583;28;20032;-53
2022/08/17 01:05:44;;;;;;;4.95;3.90;;;;;;;25.22;51.01;94638.28;5035604;28;20052;-52
2022/08/17 01:08:12;;;;;;;6.30;4.03;;;;;;;25.20;50.90;94643.53;5028112;28;20051;-54
2022/08/17 01:10:52;;;;;;;6.38;3.88;;;;;;;25.36;51.10;94669.75;5055888;28;20048;-52
2022/08/17 01:13:18;;;;;;;5.82;3.60;;;;;;;25.40;51.11;94659.25;5043813;28;20397;-53
2022/08/17 01:15:56;;;;;;;5.50;4.18;;;;;;;25.37;51.30;94671.25;5060960;28;20513;-52
2022/08/17 01:18:22;;;;;;;5.85;3.67;;;;;;;25.38;51.08;94661.75;5039827;28;20032;-54
2022/08/17 01:20:49;;;;;;;5.55;4.00;;;;;;;25.32;51.31;94680.31;5045388;28;20087;-53
2022/08/17 01:23:15;;;;;;;5.40;3.83;;;;;;;25.38;51.13;94669.94;5057161;28;20043;-54
2022/08/17 01:25:41;;;;;;;4.97;3.83;;;;;;;25.16;51.82;94661.53;5043951;28;20037;-54
2022/08/17 01:28:06;;;;;;;5.28;3.70;;;;;;;25.15;51.67;94665.50;5061105;28;20123;-57
2022/08/17 01:30:32;;;;;;;4.93;3.83;;;;;;;25.17;51.85;94669.19;5058147;28;20315;-54
2022/08/17 01:32:57;;;;;;;5.03;4.10;;;;;;;25.02;51.98;94641.69;5060078;28;20076;-53
2022/08/17 01:35:23;;;;;;;6.32;3.80;;;;;;;25.19;51.67;94663.94;5061902;28;20109;-52
2022/08/17 01:37:48;;;;;;;6.78;3.80;;;;;;;25.22;51.57;94659.41;5054917;28;20029;-51
2022/08/17 01:40:14;;;;;;;5.32;3.70;;;;;;;25.18;51.72;94665.19;5056881;28;20098;-52
2022/08/17 01:43:06;;;;;;;6.45;4.07;;;;;;;25.20;51.70;94668.13;5055936;28;20133;-53
2022/08/17 01:45:32;;;;;;;5.57;4.10;;;;;;;25.13;52.09;94663.31;5029194;28;20052;-52
2022/08/17 01:47:58;;;;;;;4.63;3.95;;;;;;;24.96;51.78;94643.78;5058296;28;20049;-54
2022/08/17 01:50:27;;;;;;;6.25;4.45;;;;;;;25.05;52.32;94651.56;5059226;28;20193;-52
2022/08/17 01:53:07;;;;;;;6.03;4.00;;;;;;;25.11;52.06;94654.16;5062137;28;20041;-54
2022/08/17 01:55:33;;;;;;;;;;;;;;;25.12;52.24;94661.81;5027218;28;20025;-54
2022/08/17 01:57:58;;;;;;;13.18;4.75;;;;;;;24.96;52.32;94643.78;5062184;28;19920;-53
2022/08/17 02:00:24;;;;;;;5.90;3.85;;;;;;;25.06;52.44;94658.47;5060426;28;20606;-52
2022/08/17 02:02:50;;;;;;;6.75;4.85;;;;;;;24.66;52.57;94631.00;5040401;28;20167;-53
2022/08/17 02:05:17;;;;;;;6.13;4.40;;;;;;;24.93;52.67;94672.16;5062544;28;20767;-52
2022/08/17 02:07:42;;;;;;;6.78;4.53;;;;;;;24.97;52.49;94661.63;5058033;28;20037;-52
2022/08/17 02:10:08;;;;;;;7.40;4.60;;;;;;;24.89;52.30;94649.88;5063777;28;20541;-53
2022/08/17 02:12:36;;;;;;;6.68;4.40;;;;;;;24.91;52.22;94657.53;5053414;28;20041;-53
2022/08/17 02:15:04;;;;;;;5.47;4.20;;;;;;;24.92;52.68;94654.28;5060052;28;20182;-54
2022/08/17 02:17:29;;;;;;;5.82;4.30;;;;;;;24.92;52.28;94665.22;5042182;28;20068;-52
2022/08/17 02:19:55;;;;;;;7.57;4.63;;;;;;;24.96;52.84;94676.56;5056322;28;20059;-53
2022/08/17 02:22:21;;;;;;;6.22;4.30;;;;;;;24.72;52.66;94645.28;5059069;28;20047;-52
2022/08/17 02:24:46;;;;;;;6.25;4.15;;;;;;;24.97;52.53;94667.09;5059695;28;21787;-55
2022/08/17 02:27:12;;;;;;;5.97;4.38;;;;;;;24.98;52.54;94668.56;5039058;28;20102;-54
2022/08/17 02:29:37;;;;;;;6.45;4.50;;;;;;;24.96;52.26;94670.34;5058574;28;20044;-52
2022/08/17 02:32:03;;;;;;;5.78;4.15;;;;;;;24.92;52.58;94675.41;5057531;28;20139;-53
2022/08/17 02:34:31;;;;;;;6.82;4.25;;;;;;;24.78;52.71;94654.81;5059156;28;20554;-54
2022/08/17 02:36:56;;;;;;;6.60;4.50;;;;;;;24.91;52.87;94674.66;5038093;28;20078;-52
2022/08/17 02:39:22;;;;;;;5.13;4.10;;;;;;;24.91;52.77;94669.19;5058130;28;20032;-54
2022/08/17 02:41:47;;;;;;;6.70;4.07;;;;;;;24.93;52.72;94666.69;5052431;28;20040;-55
2022/08/17 02:44:13;;;;;;;5.57;4.28;;;;;;;24.89;52.46;94671.72;5058533;28;20087;-53
2022/08/17 02:46:38;;;;;;;6.40;4.43;;;;;;;24.81;52.67;94666.69;5040080;28;20047;-53
2022/08/17 02:49:04;;;;;;;5.22;4.30;;;;;;;24.75;53.25;94683.19;5048716;28;20040;-53
2022/08/17 02:51:30;;;;;;;6.07;4.28;;;;;;;24.60;53.00;94671.31;5054978;28;20060;-52
2022/08/17 02:53:56;;;;;;;7.63;4.57;;;;;;;24.87;52.54;94684.44;5041421;28;20040;-54
2022/08/17 02:56:21;;;;;;;4.90;4.18;;;;;;;24.87;52.79;94679.72;5055370;28;20411;-53
2022/08/17 02:58:47;;;;;;;5.72;4.18;;;;;;;24.82;52.58;94676.38;5039061;28;20048;-52
2022/08/17 03:01:12;;;;;;;6.68;3.90;;;;;;;24.67;52.90;94681.63;5056324;28;20754;-54
2022/08/17 03:03:38;;;;;;;7.75;4.60;;;;;;;24.67;53.06;94676.16;5059324;28;20032;-53
2022/08/17 03:06:04;;;;;;;7.50;4.25;;;;;;;24.44;52.77;94645.09;5054134;28;20817;-54
2022/08/17 03:08:29;;;;;;;6.93;4.30;;;;;;;24.68;53.15;94685.81;5041402;28;20037;-53
2022/08/17 03:10:55;;;;;;;7.38;4.47;;;;;;;24.75;52.90;94698.84;5058106;28;20442;-53
2022/08/17 03:13:21;;;;;;;6.10;4.15;;;;;;;24.63;52.37;94670.25;5054447;28;20534;-53
2022/08/17 03:15:47;;;;;;;5.20;4.40;;;;;;;24.54;53.00;94665.97;5061618;28;20017;-52
2022/08/17 03:18:13;;;;;;;5.70;4.40;;;;;;;24.63;53.08;94697.56;5061604;28;20494;-52
2022/08/17 03:20:39;;;;;;;6.47;3.95;;;;;;;24.35;52.99;94662.59;5062434;28;20569;-54
2022/08/17 03:23:05;;;;;;;7.82;4.93;;;;;;;24.62;53.09;94701.56;5060946;28;20047;-54
2022/08/17 03:25:36;;;;;;;5.85;4.32;;;;;;;24.63;52.92;94698.31;5059713;28;20084;-54
2022/08/17 03:28:03;;;;;;;5.18;4.28;;;;;;;24.65;52.67;94700.50;5061010;28;20096;-54
2022/08/17 03:30:28;;;;;;;5.93;4.32;;;;;;;24.52;52.83;94676.66;5057734;28;20059;-53
2022/08/17 03:32:56;;;;;;;7.55;4.72;;;;;;;24.45;52.88;94666.41;5060277;28;20060;-54
2022/08/17 03:35:23;;;;;;;8.02;5.15;;;;;;;24.64;52.49;94699.78;5055729;28;20584;-53
2022/08/17 03:37:49;;;;;;;5.60;4.32;;;;;;;24.54;52.80;94695.25;5040711;28;20033;-53
2022/08/17 03:40:14;;;;;;;7.30;4.72;;;;;;;24.61;52.76;94706.28;5058053;28;20474;-52
2022/08/17 03:42:40;;;;;;;6.50;4.70;;;;;;;24.61;53.01;94706.28;5057459;28;20033;-52
2022/08/17 03:45:09;;;;;;;8.00;4.88;;;;;;;24.49;53.08;94698.84;5060606;28;20064;-53
2022/08/17 03:58:36;;;;;;;6.05;4.35;;;;;;;24.50;53.04;94705.78;5061113;28;20043;-53
2022/08/17 04:01:02;;;;;;;5.85;4.38;;;;;;;24.45;52.97;94712.03;5059301;28;20126;-56
2022/08/17 04:03:28;;;;;;;8.20;5.00;;;;;;;24.46;52.98;94716.25;5061295;28;20436;-54
2022/08/17 04:05:53;;;;;;;7.80;5.18;;;;;;;24.49;52.95;94720.66;5054554;28;20040;-52
2022/08/17 04:08:19;;;;;;;5.93;4.80;;;;;;;24.17;52.70;94668.13;5055106;28;20049;-53
2022/08/17 04:10:45;;;;;;;7.93;4.90;;;;;;;24.57;53.05;94722.25;5059708;28;20031;-53
2022/08/17 04:13:10;;;;;;;6.55;4.65;;;;;;;24.46;53.16;94719.00;5053448;28;20040;-54
2022/08/17 04:15:36;;;;;;;6.65;5.03;;;;;;;24.41;53.14;94709.63;5060618;28;20025;-54
2022/08/17 04:18:01;;;;;;;6.53;4.80;;;;;;;24.23;53.08;94698.78;5056217;28;20024;-53
2022/08/17 04:20:27;;;;;;;7.25;5.03;;;;;;;24.40;53.49;94726.53;5055976;28;20511;-53
2022/08/17 04:23:08;;;;;;;6.15;4.45;;;;;;;24.28;53.25;94710.84;5036367;28;20139;-53
2022/08/17 04:25:35;;;;;;;7.25;4.60;;;;;;;24.47;52.93;94734.13;5054835;28;20116;-54
2022/08/17 04:28:01;;;;;;;6.75;4.80;;;;;;;24.52;53.21;94741.47;5035923;28;20943;-53
2022/08/17 04:30:28;;;;;;;7.28;4.97;;;;;;;24.46;53.77;94738.09;5037255;28;20035;-53
2022/08/17 04:32:55;;;;;;;8.20;5.20;;;;;;;24.46;53.43;94743.56;5054874;28;20359;-53
2022/08/17 04:35:22;;;;;;;7.50;5.28;;;;;;;24.52;53.10;94746.94;5059545;28;20039;-54
2022/08/17 04:37:48;;;;;;;8.25;5.57;;;;;;;24.47;53.54;94734.13;5059667;28;20053;-53
2022/08/17 04:43:06;;;;;;;7.93;5.07;;;;;;;24.38;53.31;94715.41;5025225;28;20557;-54
2022/08/17 04:45:32;;;;;;;7.50;4.90;;;;;;;24.53;53.62;94748.41;5025683;28;20047;-55
2022/08/17 04:47:57;;;;;;;7.85;5.03;;;;;;;24.43;53.99;94750.78;5024763;28;20037;-53
2022/08/17 04:50:23;;;;;;;5.40;4.63;;;;;;;23.85;53.75;94665.94;5044771;28;20031;-54
2022/08/17 04:52:48;;;;;;;7.88;5.43;;;;;;;24.27;54.25;94737.38;5048777;28;20041;-53
2022/08/17 04:55:14;;;;;;;9.20;5.40;;;;;;;24.36;54.26;94756.13;5045281;28;20056;-55
2022/08/17 04:57:40;;;;;;;8.27;5.70;;;;;;;24.32;54.16;94755.69;5034226;28;20473;-53
2022/08/17 05:00:07;;;;;;;9.27;5.55;;;;;;;24.35;54.33;94760.13;5035720;28;20118;-52
2022/08/17 05:02:32;;;;;;;9.93;5.40;;;;;;;24.37;53.88;94754.88;5021595;28;20111;-52
2022/08/17 05:04:58;;;;;;;8.30;5.82;;;;;;;24.13;54.13;94738.63;5026182;28;20052;-52
2022/08/17 05:07:23;;;;;;;10.63;6.10;;;;;;;24.40;54.00;94759.28;5029739;28;20048;-53
2022/08/17 05:09:49;;;;;;;12.27;6.10;;;;;;;24.38;54.30;94753.63;5035864;28;20029;-55
2022/08/17 05:12:14;;;;;;;12.77;6.72;;;;;;;24.30;54.32;94724.69;5010359;28;20033;-54
2022/08/17 05:14:40;;;;;;;10.02;6.15;;;;;;;24.11;54.01;94694.75;5030335;28;20037;-61
2022/08/17 05:17:05;;;;;;;12.45;6.10;;;;;;;24.61;53.70;94751.97;5035602;28;20038;-53
2022/08/17 05:19:31;;;;;;;12.65;6.65;;;;;;;24.70;52.95;94757.75;5031126;28;20420;-53
2022/08/17 05:21:56;;;;;;;11.80;5.95;;;;;;;24.82;52.79;94763.75;5033298;28;20029;-52
2022/08/17 05:24:22;;;;;;;12.52;6.13;;;;;;;24.82;52.53;94769.94;5034004;28;20110;-54
2022/08/17 05:26:47;;;;;;;9.82;5.80;;;;;;;24.91;52.19;94764.81;5039678;28;20061;-53
2022/08/17 05:29:13;;;;;;;8.10;5.60;;;;;;;24.98;51.94;94760.72;5037211;28;20936;-53
2022/08/17 05:31:38;;;;;;;9.35;5.78;;;;;;;25.06;53.40;94756.84;5035681;28;20102;-53
2022/08/17 05:34:04;;;;;;;10.70;5.72;;;;;;;25.19;52.37;94764.31;5036079;28;20036;-53
2022/08/17 05:36:29;;;;;;;8.98;6.03;;;;;;;25.13;51.68;94767.16;5033743;28;20033;-52
2022/08/17 05:38:54;;;;;;;10.40;6.47;;;;;;;25.24;51.61;94772.38;5037099;28;20037;-53
2022/08/17 05:41:20;;;;;;;12.05;6.85;;;;;;;25.18;53.59;94769.03;5034644;28;20442;-54
2022/08/17 05:43:45;;;;;;;10.15;6.15;;;;;;;25.40;51.93;94768.59;5035681;28;20041;-54
2022/08/17 05:46:15;;;;;;;11.65;6.00;;;;;;;25.49;51.28;94765.44;5029979;28;20053;-53
2022/08/17 05:48:46;;;;;;;12.35;6.38;;;;;;;25.54;51.24;94768.03;5031277;28;20041;-53
2022/08/17 05:51:18;;;;;;;8.35;6.13;;;;;;;25.58;50.88;94756.78;5034795;28;20045;-53
2022/08/17 05:54:05;;;;;;;9.65;6.32;;;;;;;25.67;50.91;94759.09;5034076;28;20045;-52
2022/08/17 05:56:42;;;;;;;12.88;6.68;;;;;;;25.73;50.78;94768.66;5031356;28;20039;-51
2022/08/17 05:59:46;;;;;;;9.25;7.10;;;;;;;25.80;50.85;94759.81;5031103;28;20053;-51
2022/08/17 06:02:23;;;;;;;9.73;6.88;;;;;;;25.99;50.51;94769.31;5027577;28;20140;-55
2022/08/17 06:04:53;;;;;;;11.57;7.18;;;;;;;25.91;50.42;94759.53;5034599;28;20043;-54
2022/08/17 06:07:25;;;;;;;10.68;6.57;;;;;;;26.01;50.77;94766.78;5020644;28;20119;-54
2022/08/17 06:09:59;;;;;;;18.58;7.60;;;;;;;26.04;50.92;94765.72;5040161;28;20025;-53
2022/08/17 06:12:33;;;;;;;16.15;6.90;;;;;;;26.20;51.40;94766.56;5036099;28;20021;-54
2022/08/17 06:15:23;;;;;;;14.63;6.90;;;;;;;26.27;51.18;94763.91;5035614;28;20041;-52
2022/08/17 06:17:55;;;;;;;11.10;6.43;;;;;;;26.36;50.69;94760.72;5038102;28;20431;-54
2022/08/17 06:20:20;;;;;;;12.77;7.93;;;;;;;25.89;50.98;94702.63;5036694;28;20036;-53
2022/08/17 06:22:49;;;;;;;11.32;6.95;;;;;;;26.47;50.88;94765.94;5014109;28;20037;-53
2022/08/17 06:25:30;;;;;;;11.75;6.90;;;;;;;26.44;49.86;94758.78;5028300;28;20108;-54
2022/08/17 06:28:11;;;;;;;13.30;6.68;;;;;;;26.46;49.70;94769.97;5021881;28;20032;-52
2022/08/17 06:30:56;;;;;;;10.52;6.88;;;;;;;26.50;49.28;94751.16;5039940;28;20048;-54
2022/08/17 06:33:25;;;;;;;8.93;6.32;;;;;;;26.57;48.85;94766.94;5023631;28;20110;-52
2022/08/17 06:36:04;;;;;;;9.98;6.38;;;;;;;26.65;48.87;94767.72;5017418;28;20597;-52
2022/08/17 06:38:52;;;;;;;11.30;7.27;;;;;;;26.72;48.36;94772.53;5015428;28;20061;-52
2022/08/17 06:41:20;;;;;;;11.88;6.47;;;;;;;26.73;48.17;94768.53;5030937;28;20276;-52
2022/08/17 06:44:01;;;;;;;11.30;6.82;;;;;;;26.72;48.68;94761.56;5046737;28;20071;-52
2022/08/17 06:46:36;;;;;;;12.10;6.78;;;;;;;26.68;48.59;94761.16;5049833;28;20044;-51
2022/08/17 06:49:11;;;;;;;12.68;6.90;;;;;;;26.67;48.71;94770.69;5023450;28;20102;-54
2022/08/17 06:52:06;;;;;;;10.07;7.40;;;;;;;26.52;48.91;94743.16;5051872;28;20029;-52
2022/08/17 06:54:44;;;;;;;9.70;6.53;;;;;;;26.64;48.71;94760.78;5031187;28;20036;-52
2022/08/17 06:57:15;;;;;;;12.95;6.55;;;;;;;26.51;48.69;94749.91;5035051;28;20052;-54
2022/08/17 07:00:08;;;;;;;13.13;6.93;;;;;;;26.43;48.55;94747.09;5051519;28;20033;-53
2022/08/17 07:02:36;;;;;;;11.70;6.70;;;;;;;26.48;48.87;94759.91;5020102;28;20111;-52
2022/08/17 07:05:02;;;;;;;12.18;6.75;;;;;;;26.49;48.91;94757.94;5050301;28;20387;-53
2022/08/17 07:10:12;;;;;;;10.95;6.82;;;;;;;26.42;48.51;94751.09;5027944;28;20044;-52
2022/08/17 07:12:39;;;;;;;10.32;6.47;;;;;;;26.39;48.65;94751.44;5039216;28;20037;-52
2022/08/17 07:15:15;;;;;;;10.25;6.00;;;;;;;26.55;48.62;94753.78;5045320;28;20041;-52
2022/08/17 07:17:41;;;;;;;9.68;5.57;;;;;;;26.62;48.56;94760.56;5043956;28;20029;-52
2022/08/17 07:20:08;;;;;;;14.65;6.45;;;;;;;26.47;48.52;94752.25;5016399;28;20654;-53
2022/08/17 07:22:41;;;;;;;9.70;6.03;;;;;;;26.46;48.66;94739.84;5042234;28;20040;-53
2022/08/17 07:25:08;;;;;;;10.30;5.50;;;;;;;26.57;48.69;94755.97;5044655;28;20329;-53
2022/08/17 07:27:39;;;;;;;9.85;5.10;;;;;;;26.57;48.78;94761.47;5050562;28;20040;-55
2022/08/17 07:30:10;;;;;;;10.50;5.68;;;;;;;26.58;48.71;94752.69;5036279;28;20120;-55
2022/08/17 07:32:35;;;;;;;8.65;5.38;;;;;;;26.55;48.83;94758.53;5040085;28;20040;-54
2022/08/17 07:35:07;;;;;;;9.20;5.03;;;;;;;26.62;49.09;94760.56;5049585;28;21748;-54
2022/08/17 07:37:33;;;;;;;11.30;5.78;;;;;;;26.66;49.05;94755.50;5049784;28;20036;-55
2022/08/17 07:39:59;;;;;;;10.52;5.63;;;;;;;26.46;48.68;94742.56;5051290;28;20826;-54
2022/08/17 07:42:24;;;;;;;8.35;5.40;;;;;;;26.59;48.82;94753.44;5047902;28;20570;-54
2022/08/17 07:44:53;;;;;;;8.35;5.32;;;;;;;26.49;48.62;94744.25;5047777;28;20037;-54
2022/08/17 07:50:09;;;;;;;9.15;5.60;;;;;;;26.56;48.80;94746.28;5035292;28;20076;-54
2022/08/17 07:52:36;;;;;;;8.80;5.18;;;;;;;26.53;49.41;94752.84;5019144;28;20036;-55
2022/08/17 07:55:05;;;;;;;10.07;5.65;;;;;;;26.49;49.08;94749.72;5051033;28;20049;-54
2022/08/17 07:57:33;;;;;;;8.98;4.93;;;;;;;26.57;49.31;94755.97;5022261;28;20012;-55
2022/08/17 07:59:58;;;;;;;8.80;4.97;;;;;;;26.64;49.51;94749.84;5040884;28;20039;-52
2022/08/17 08:02:37;;;;;;;8.50;5.65;;;;;;;26.56;49.66;94747.03;5043548;28;20032;-54
2022/08/17 08:05:07;;;;;;;10.80;4.97;;;;;;;26.56;49.47;94744.28;5049392;28;20033;-54
2022/08/17 08:07:41;;;;;;;;;;;;;;;26.45;49.98;94743.84;5044330;28;20891;-53
2022/08/17 08:10:08;;;;;;;8.77;4.70;;;;;;;26.48;49.46;94748.25;5054796;28;19917;-53
2022/08/17 08:12:47;;;;;;;7.00;4.97;;;;;;;26.45;49.68;94749.31;5038406;28;20341;-54
2022/08/17 08:15:17;;;;;;;8.07;4.75;;;;;;;26.36;49.95;94747.03;5056316;28;20037;-54
2022/08/17 08:18:01;;;;;;;8.13;4.53;;;;;;;25.87;50.04;94655.91;5027269;28;20082;-53
2022/08/17 08:20:49;;;;;;;7.10;4.63;;;;;;;26.53;49.55;94734.41;5044245;28;20040;-53
2022/08/17 08:23:24;;;;;;;11.50;4.90;;;;;;;26.50;49.96;94743.69;5043679;28;20049;-54
2022/08/17 08:26:07;;;;;;;6.57;4.50;;;;;;;26.38;49.84;94714.38;5035592;28;20328;-53
2022/08/17 08:28:48;;;;;;;7.82;4.97;;;;;;;26.56;49.18;94729.84;5033971;28;20782;-53
2022/08/17 08:31:43;;;;;;;9.30;4.85;;;;;;;26.56;49.27;94743.53;5046012;28;20567;-54
2022/08/17 08:34:37;;;;;;;10.88;5.13;;;;;;;26.55;49.86;94725.66;5028665;28;20098;-52
2022/08/17 08:37:13;;;;;;;8.05;5.03;;;;;;;26.26;50.46;94699.47;5013419;28;20049;-54
2022/08/17 08:39:56;;;;;;;8.35;4.85;;;;;;;26.47;50.18;94730.31;5027762;28;20329;-53
2022/08/17 08:42:57;;;;;;;6.32;4.85;;;;;;;26.49;50.45;94733.28;5048367;28;20053;-56
2022/08/17 08:45:50;;;;;;;7.88;4.68;;;;;;;26.60;50.41;94722.75;4987502;28;20072;-54
2022/08/17 08:48:34;;;;;;;5.10;4.38;;;;;;;26.58;50.33;94719.84;5045997;28;20079;-54
2022/08/17 08:51:29;;;;;;;7.78;4.07;;;;;;;26.56;50.14;94716.16;5049046;28;20094;-52
2022/08/17 08:54:03;;;;;;;5.65;4.13;;;;;;;26.65;49.75;94719.16;5007891;28;20041;-52
2022/08/17 08:56:52;;;;;;;6.88;4.50;;;;;;;26.69;49.37;94713.34;5030986;28;20037;-53
2022/08/17 08:59:27;;;;;;;7.55;4.40;;;;;;;26.59;48.96;94693.91;5048408;28;20036;-55
2022/08/17 09:02:32;;;;;;;5.68;4.03;;;;;;;26.71;48.90;94719.00;5051873;28;20036;-55
2022/08/17 09:05:25;;;;;;;6.10;4.18;;;;;;;26.73;48.66;94719.22;5053153;28;20514;-52
2022/08/17 09:08:09;;;;;;;7.20;3.80;;;;;;;26.76;48.41;94705.88;5053998;28;20028;-56
2022/08/17 09:10:38;;;;;;;6.25;3.33;;;;;;;26.76;48.30;94719.59;5050873;28;20033;-56
2022/08/17 09:13:20;;;;;;;5.97;3.40;;;;;;;26.85;48.22;94710.88;5046559;28;20041;-55
2022/08/17 09:15:56;;;;;;;5.88;3.03;;;;;;;26.89;48.49;94716.78;5051641;28;20052;-56
2022/08/17 09:18:28;;;;;;;23.65;4.50;;;;;;;26.97;47.76;94716.81;5052994;28;20017;-54
2022/08/17 09:21:09;;;;;;;31.70;5.40;;;;;;;26.63;48.75;94710.00;5050832;28;20111;-58
2022/08/17 09:24:03;;;;;;;14.05;4.63;;;;;;;26.60;48.86;94722.75;5032360;28;20040;-55
2022/08/17 09:26:44;;;;;;;17.00;5.70;;;;;;;26.61;48.77;94729.00;5054835;28;20160;-55
2022/08/17 09:29:12;;;;;;;11.88;4.43;;;;;;;26.45;48.71;94721.94;5035156;28;20119;-55
2022/08/17 09:31:45;;;;;;;10.45;4.70;;;;;;;26.25;49.63;94705.47;5059665;28;20029;-55
2022/08/17 09:34:15;;;;;;;10.73;4.80;;;;;;;26.32;49.94;94720.00;5044850;28;20130;-54
2022/08/17 09:36:51;;;;;;;10.15;4.40;;;;;;;26.43;49.35;94716.25;5038124;28;20032;-55
2022/08/17 09:39:27;;;;;;;10.02;4.68;;;;;;;25.88;51.33;94709.34;5039172;28;20041;-53
2022/08/17 09:42:01;;;;;;;6.78;4.20;;;;;;;25.43;52.92;94718.31;5041261;28;20542;-57
2022/08/17 09:44:34;;;;;;;8.55;4.25;;;;;;;25.93;51.78;94711.25;5040011;28;20048;-56
2022/08/17 09:47:24;;;;;;;10.18;4.40;;;;;;;25.66;52.46;94716.59;5023634;28;20067;-54
2022/08/17 09:50:01;;;;;;;6.22;3.80;;;;;;;25.50;52.55;94717.66;5052521;28;20035;-55
2022/08/17 09:52:28;;;;;;;8.82;3.83;;;;;;;25.84;52.00;94719.16;5021864;28;20040;-56
2022/08/17 09:54:54;;;;;;;6.63;4.07;;;;;;;26.30;50.68;94716.31;5058023;28;20530;-57
2022/08/17 09:57:32;;;;;;;6.82;3.65;;;;;;;26.32;50.76;94713.78;5059751;28;20052;-57
2022/08/17 10:00:26;;;;;;;8.57;3.80;;;;;;;26.58;49.42;94702.69;5059174;28;20041;-56
2022/08/17 10:03:04;;;;;;;7.53;3.50;;;;;;;26.33;48.94;94710.50;5042640;28;20047;-60
2022/08/17 10:05:38;;;;;;;5.72;3.75;;;;;;;26.39;48.41;94696.69;5052602;28;20529;-58
2022/08/17 10:08:18;;;;;;;10.25;3.60;;;;;;;26.32;48.49;94697.34;5060447;28;20043;-58
2022/08/17 10:11:08;;;;;;;5.13;3.65;;;;;;;26.40;48.03;94706.38;5054924;28;20447;-54
2022/08/17 10:13:40;;;;;;;9.18;3.85;;;;;;;26.40;47.25;94703.63;5054866;28;20072;-53
2022/08/17 10:16:19;;;;;;;5.18;3.80;;;;;;;26.32;47.56;94702.81;5054343;28;20482;-54
2022/08/17 10:19:20;;;;;;;7.20;3.65;;;;;;;26.62;46.96;94686.63;5052154;28;20021;-54
2022/08/17 10:27:18;;;;;;;5.07;3.33;;;;;;;26.82;50.68;94678.34;5045016;28;20075;-55
2022/08/17 10:29:56;;;;;;;5.55;3.78;;;;;;;26.74;49.25;94654.91;5024849;28;20051;-51
2022/08/17 10:32:31;;;;;;;4.90;3.35;;;;;;;27.09;48.72;94680.34;5041903;28;20048;-53
2022/08/17 10:35:08;;;;;;;3.42;3.03;;;;;;;27.18;47.61;94677.09;5041150;28;20040;-53
2022/08/17 10:37:52;;;;;;;3.95;3.10;;;;;;;27.37;47.46;94688.50;5044581;28;20551;-53
2022/08/17 10:40:21;;;;;;;4.30;3.25;;;;;;;27.44;46.53;94676.81;5056920;28;20110;-54
2022/08/17 10:43:00;;;;;;;5.22;3.38;;;;;;;27.40;46.05;94676.44;5034156;28;20503;-53
2022/08/17 10:45:44;;;;;;;4.63;3.13;;;;;;;27.34;45.78;94684.09;5032452;28;20024;-55
2022/08/17 10:48:11;;;;;;;4.63;3.22;;;;;;;27.39;45.78;94683.91;5051187;28;20044;-53
2022/08/17 10:50:54;;;;;;;6.07;3.70;;;;;;;27.36;45.66;94676.06;5049131;28;20044;-54
2022/08/17 10:53:32;;;;;;;4.15;2.97;;;;;;;27.43;45.52;94667.13;5050581;28;20060;-53
2022/08/17 10:56:12;;;;;;;5.65;3.10;;;;;;;27.46;45.32;94675.00;5048777;28;20102;-56
2022/08/17 10:58:52;;;;;;;5.47;3.58;;;;;;;27.44;45.12;94665.84;5050318;28;20143;-54
2022/08/17 11:01:31;;;;;;;4.82;2.67;;;;;;;27.44;44.93;94661.09;5036490;28;20044;-56
2022/08/17 11:04:00;;;;;;;6.43;2.97;;;;;;;27.50;44.57;94671.91;5039384;28;20109;-56
2022/08/17 11:06:37;;;;;;;4.55;3.00;;;;;;;27.50;44.74;94664.44;5041952;28;20021;-54
2022/08/17 11:09:18;;;;;;;4.05;3.00;;;;;;;27.49;44.16;94653.97;5046724;28;20045;-56
2022/08/17 11:12:06;;;;;;;3.67;3.00;;;;;;;27.51;43.85;94662.41;5038340;28;20170;-53
2022/08/17 11:15:36;;;;;;;4.38;3.13;;;;;;;27.52;43.79;94656.38;5029835;28;20052;-55
2022/08/17 11:18:07;;;;;;;4.10;3.05;;;;;;;27.55;43.86;94660.03;4942146;28;20593;-55
2022/08/17 11:20:51;;;;;;;3.78;3.00;;;;;;;27.57;43.84;94662.97;5048872;28;20033;-52
2022/08/17 11:23:42;;;;;;;6.78;3.47;;;;;;;27.60;43.30;94668.09;5036969;28;20114;-54
2022/08/17 11:26:37;;;;;;;5.07;3.50;;;;;;;27.59;43.10;94663.88;5047069;28;20119;-53
2022/08/17 11:29:15;;;;;;;3.80;2.90;;;;;;;27.62;43.72;94664.81;5028260;28;20045;-55
2022/08/17 11:31:42;;;;;;;5.18;3.05;;;;;;;27.63;43.54;94655.31;5036207;28;20553;-54
2022/08/17 11:34:20;;;;;;;4.82;3.40;;;;;;;27.67;43.58;94644.69;5023579;28;20132;-54
2022/08/17 11:36:55;;;;;;;3.63;3.05;;;;;;;27.67;43.45;94661.16;5044348;28;20045;-55
2022/08/17 11:39:21;;;;;;;5.25;3.10;;;;;;;27.64;42.86;94640.28;5050363;28;20013;-55
2022/08/17 11:42:15;;;;;;;4.20;3.38;;;;;;;27.63;43.56;94660.81;5044898;28;20536;-55
2022/08/17 11:45:22;;;;;;;6.72;3.97;;;;;;;27.55;43.53;94665.53;5041899;28;20124;-55
2022/08/17 11:53:36;;;;;;;5.97;3.35;;;;;;;27.55;43.69;94673.75;5058571;28;19926;-54
2022/08/17 11:56:03;;;;;;;4.13;3.13;;;;;;;27.59;43.38;94682.38;5060755;28;20507;-52
2022/08/17 11:58:36;;;;;;;5.40;3.60;;;;;;;27.62;43.22;94675.78;5059967;28;20103;-52
2022/08/17 12:01:10;;;;;;;6.20;3.53;;;;;;;27.64;44.16;94670.47;5056287;28;20073;-52
2022/08/17 12:03:41;;;;;;;5.55;3.47;;;;;;;27.68;43.82;94681.84;5040343;28;20039;-54
2022/08/17 12:06:33;;;;;;;5.75;3.90;;;;;;;27.70;44.04;94687.50;5054696;28;20055;-52
2022/08/17 12:09:01;;;;;;;5.72;3.80;;;;;;;27.65;44.39;94696.66;5052493;28;20102;-53
2022/08/17 12:11:29;;;;;;;4.70;3.63;;;;;;;27.67;44.34;94688.59;5054629;28;20045;-52
2022/08/17 12:13:56;;;;;;;4.72;3.88;;;;;;;27.67;45.10;94694.09;5053673;28;20716;-53
2022/08/17 12:16:22;;;;;;;6.35;4.15;;;;;;;27.63;45.02;94682.75;5042353;28;20040;-52
2022/08/17 12:18:51;;;;;;;4.75;4.15;;;;;;;27.62;44.78;94681.28;5036930;28;20031;-55
2022/08/17 12:21:19;;;;;;;6.00;4.07;;;;;;;27.55;45.16;94695.69;5026876;28;20032;-52
2022/08/17 12:23:50;;;;;;;4.80;4.00;;;;;;;27.63;44.84;94693.72;5060070;28;20206;-56
2022/08/17 12:26:18;;;;;;;4.93;3.92;;;;;;;27.55;45.03;94682.72;5060463;28;20442;-55